createdAt,value
2022-11-04T00:01:25.330Z,0.17
2022-11-04T00:06:39.940Z,0.10
2022-11-04T00:09:20.402Z,0.08
2022-11-04T00:12:10.677Z,0.10
2022-11-04T00:14:42.119Z,0.10
2022-11-04T00:17:21.742Z,0.00
2022-11-04T00:20:12.652Z,0.03
2022-11-04T00:23:03.826Z,0.15
2022-11-04T00:28:44.862Z,0.10
2022-11-04T00:31:33.938Z,0.20
2022-11-04T00:34:05.110Z,0.20
2022-11-04T00:36:36.390Z,0.20
2022-11-04T00:39:07.575Z,1.05
2022-11-04T00:41:38.699Z,0.03
2022-11-04T00:44:10.098Z,0.10
2022-11-04T00:46:41.370Z,0.10
2022-11-04T00:49:13.145Z,0.03
2022-11-04T00:51:44.218Z,0.00
2022-11-04T00:56:45.335Z,0.00
2022-11-04T00:59:16.764Z,0.13
2022-11-04T01:01:48.214Z,0.10
2022-11-04T01:04:19.427Z,0.10
2022-11-04T01:09:20.590Z,0.10
2022-11-04T01:11:51.852Z,0.20
2022-11-04T01:14:23.340Z,0.15
2022-11-04T01:16:54.704Z,0.10
2022-11-04T01:19:25.983Z,0.20
2022-11-04T01:21:57.198Z,0.30
2022-11-04T01:24:28.808Z,0.17
2022-11-04T01:27:00.115Z,0.30
2022-11-04T01:29:31.586Z,0.35
2022-11-04T01:32:02.862Z,0.13
2022-11-04T01:34:36.830Z,0.30
2022-11-04T01:37:07.083Z,0.40
2022-11-04T01:39:38.319Z,0.17
2022-11-04T01:42:13.898Z,0.20
2022-11-04T01:44:54.141Z,0.28
2022-11-04T01:47:33.333Z,0.10
2022-11-04T01:50:09.656Z,0.20
2022-11-04T01:52:44.496Z,0.30
2022-11-04T01:55:18.859Z,0.20
2022-11-04T01:57:52.279Z,0.70
2022-11-04T02:00:23.626Z,0.40
2022-11-04T02:03:00.450Z,0.20
2022-11-04T02:05:33.418Z,0.30
2022-11-04T02:08:07.889Z,0.20
2022-11-04T02:10:42.463Z,0.20
2022-11-04T02:13:13.821Z,0.15
2022-11-04T02:15:48.206Z,0.20
2022-11-04T02:18:42.011Z,0.10
2022-11-04T02:21:33.485Z,0.10
2022-11-04T02:24:28.297Z,0.20
2022-11-04T02:27:25.273Z,0.15
2022-11-04T02:30:07.789Z,0.55
2022-11-04T02:32:45.682Z,0.23
2022-11-04T02:35:21.713Z,0.30
2022-11-04T02:37:57.512Z,0.23
2022-11-04T02:40:33.538Z,0.20
2022-11-04T02:43:07.989Z,0.20
2022-11-04T02:45:42.038Z,0.30
2022-11-04T02:48:16.358Z,0.30
2022-11-04T02:50:50.697Z,0.45
2022-11-04T02:53:24.762Z,0.40
2022-11-04T02:55:58.423Z,0.62
2022-11-04T02:58:34.338Z,0.53
2022-11-04T03:01:08.791Z,0.37
2022-11-04T03:03:44.057Z,0.37
2022-11-04T03:06:18.042Z,0.85
2022-11-04T03:08:52.196Z,0.47
2022-11-04T03:11:25.896Z,0.30
2022-11-04T03:14:00.185Z,0.25
2022-11-04T03:16:34.870Z,0.40
2022-11-04T03:19:10.374Z,0.10
2022-11-04T03:21:45.095Z,0.20
2022-11-04T03:24:16.956Z,0.30
2022-11-04T03:26:52.495Z,0.42
2022-11-04T03:29:28.104Z,0.20
2022-11-04T03:32:09.026Z,0.20
2022-11-04T03:37:10.683Z,0.30
2022-11-04T03:39:42.072Z,0.70
2022-11-04T03:42:21.217Z,0.28
2022-11-04T03:44:54.709Z,0.30
2022-11-04T03:47:28.203Z,0.50
2022-11-04T03:50:03.235Z,0.33
2022-11-04T03:52:35.829Z,0.45
2022-11-04T03:55:10.103Z,0.60
2022-11-04T03:57:47.441Z,0.20
2022-11-04T04:00:20.887Z,0.33
2022-11-04T04:03:00.518Z,0.25
2022-11-04T04:05:34.088Z,0.40
2022-11-04T04:08:16.843Z,0.47
2022-11-04T04:10:53.254Z,0.23
2022-11-04T04:13:30.682Z,0.45
2022-11-04T04:16:05.224Z,0.40
2022-11-04T04:18:39.658Z,0.30
2022-11-04T04:21:14.395Z,0.37
2022-11-04T04:24:04.902Z,0.53
2022-11-04T04:26:56.387Z,0.28
2022-11-04T04:29:29.416Z,0.50
2022-11-04T04:32:01.616Z,0.40
2022-11-04T04:34:34.428Z,0.55
2022-11-04T04:37:08.989Z,0.30
2022-11-04T04:40:01.313Z,0.30
2022-11-04T04:42:53.445Z,0.82
2022-11-04T04:45:27.745Z,0.40
2022-11-04T04:48:01.465Z,0.57
2022-11-04T04:50:36.963Z,0.70
2022-11-04T04:53:08.417Z,0.68
2022-11-04T04:55:41.707Z,0.40
2022-11-04T04:58:12.742Z,0.45
2022-11-04T05:00:44.035Z,0.47
2022-11-04T05:03:15.146Z,0.20
2022-11-04T05:05:46.340Z,0.57
2022-11-04T05:08:17.463Z,0.50
2022-11-04T05:10:48.746Z,0.80
2022-11-04T05:13:29.966Z,0.42
2022-11-04T05:16:07.479Z,0.50
2022-11-04T05:18:38.817Z,0.40
2022-11-04T05:21:12.780Z,1.07
2022-11-04T05:23:43.866Z,0.30
2022-11-04T05:28:45.786Z,0.47
2022-11-04T05:31:17.174Z,1.27
2022-11-04T05:33:48.461Z,0.40
2022-11-04T05:36:19.662Z,0.40
2022-11-04T05:38:55.503Z,0.40
2022-11-04T05:41:26.796Z,0.60
2022-11-04T05:43:59.786Z,0.40
2022-11-04T05:46:31.565Z,0.30
2022-11-04T05:49:02.724Z,0.70
2022-11-04T05:51:34.054Z,0.60
2022-11-04T05:54:05.534Z,0.47
2022-11-04T05:56:36.902Z,0.57
2022-11-04T06:01:39.488Z,0.55
2022-11-04T06:04:14.677Z,0.53
2022-11-04T06:06:46.344Z,1.05
2022-11-04T06:09:17.619Z,0.72
2022-11-04T06:11:49.044Z,0.82
2022-11-04T06:14:20.328Z,0.40
2022-11-04T06:16:51.440Z,0.90
2022-11-04T06:21:52.437Z,0.60
2022-11-04T06:24:23.743Z,0.60
2022-11-04T06:26:54.874Z,0.60
2022-11-04T06:29:26.072Z,0.57
2022-11-04T06:34:28.881Z,0.98
2022-11-04T06:37:00.467Z,0.60
2022-11-04T06:39:31.877Z,0.53
2022-11-04T06:42:03.327Z,1.30
2022-11-04T06:44:35.366Z,0.93
2022-11-04T06:47:06.663Z,0.60
2022-11-04T06:49:37.753Z,0.60
2022-11-04T06:54:38.718Z,0.93
2022-11-04T06:57:12.011Z,0.80
2022-11-04T06:59:43.244Z,0.82
2022-11-04T07:02:14.559Z,0.70
2022-11-04T07:04:45.758Z,0.70
2022-11-04T07:07:16.930Z,1.12
2022-11-04T07:09:48.425Z,1.50
2022-11-04T07:12:19.657Z,1.50
2022-11-04T07:14:51.229Z,0.90
2022-11-04T07:17:22.312Z,0.98
2022-11-04T07:22:23.754Z,1.52
2022-11-04T07:24:55.216Z,1.62
2022-11-04T07:27:26.610Z,1.35
2022-11-04T07:29:57.823Z,2.40
2022-11-04T07:32:29.365Z,1.50
2022-11-04T07:35:00.554Z,2.52
2022-11-04T07:37:31.659Z,1.27
2022-11-04T07:42:33.607Z,1.45
2022-11-04T07:45:05.573Z,1.07
2022-11-04T07:47:36.844Z,2.05
2022-11-04T07:50:11.185Z,2.90
2022-11-04T07:52:41.749Z,2.52
2022-11-04T07:55:15.764Z,3.87
2022-11-04T07:57:47.671Z,3.00
2022-11-04T08:00:20.235Z,1.80
2022-11-04T08:02:51.785Z,1.65
2022-11-04T08:05:23.319Z,1.82
2022-11-04T08:07:54.627Z,1.32
2022-11-04T08:10:26.192Z,1.12
2022-11-04T08:12:57.701Z,1.22
2022-11-04T08:15:29.135Z,1.65
2022-11-04T08:18:00.280Z,1.05
2022-11-04T08:20:31.470Z,1.10
2022-11-04T08:23:02.692Z,1.20
2022-11-04T08:25:33.925Z,2.58
2022-11-04T08:28:05.435Z,2.05
2022-11-04T08:30:36.561Z,1.70
2022-11-04T08:33:08.113Z,2.20
2022-11-04T08:35:41.320Z,1.82
2022-11-04T08:38:12.679Z,2.10
2022-11-04T08:40:44.163Z,3.62
2022-11-04T08:43:15.655Z,2.08
2022-11-04T08:45:53.269Z,2.10
2022-11-04T08:48:24.818Z,1.30
2022-11-04T08:50:59.011Z,2.60
2022-11-04T08:53:31.119Z,2.08
2022-11-04T08:56:03.958Z,1.40
2022-11-04T08:58:35.169Z,1.25
2022-11-04T09:01:07.412Z,4.00
2022-11-04T09:03:40.786Z,2.12
2022-11-04T09:06:15.546Z,1.10
2022-11-04T09:08:46.973Z,0.75
2022-11-04T09:11:19.210Z,0.90
2022-11-04T09:13:50.457Z,0.82
2022-11-04T09:16:21.830Z,1.00
2022-11-04T09:22:45.790Z,0.80
2022-11-04T09:25:17.104Z,0.72
2022-11-04T09:27:50.528Z,0.70
2022-11-04T09:30:22.279Z,3.00
2022-11-04T09:32:53.891Z,0.78
2022-11-04T09:35:25.158Z,1.10
2022-11-04T09:37:57.193Z,1.00
2022-11-04T09:40:28.879Z,0.98
2022-11-04T09:43:10.909Z,0.90
2022-11-04T09:45:44.132Z,0.93
2022-11-04T09:48:20.157Z,0.80
2022-11-04T09:50:54.817Z,0.60
2022-11-04T09:53:29.228Z,0.47
2022-11-04T09:56:04.150Z,0.55
2022-11-04T09:58:38.395Z,0.40
2022-11-04T10:01:15.211Z,0.40
2022-11-04T10:03:55.877Z,0.30
2022-11-04T10:06:35.959Z,0.37
2022-11-04T10:09:14.388Z,0.60
2022-11-04T10:11:50.648Z,0.60
2022-11-04T10:14:36.500Z,0.85
2022-11-04T10:17:15.776Z,0.62
2022-11-04T10:19:54.384Z,2.02
2022-11-04T10:22:29.979Z,0.60
2022-11-04T10:25:06.278Z,0.60
2022-11-04T10:27:39.752Z,0.50
2022-11-04T10:30:18.233Z,0.40
2022-11-04T10:32:55.527Z,0.57
2022-11-04T10:35:32.586Z,0.75
2022-11-04T10:38:18.151Z,0.40
2022-11-04T10:40:51.662Z,1.00
2022-11-04T10:43:27.976Z,0.62
2022-11-04T10:46:10.132Z,1.37
2022-11-04T10:48:44.779Z,0.80
2022-11-04T10:51:20.976Z,0.78
2022-11-04T10:53:55.642Z,0.57
2022-11-04T10:56:32.260Z,0.60
2022-11-04T10:59:08.221Z,0.53
2022-11-04T11:02:11.343Z,0.57
2022-11-04T11:04:46.641Z,1.20
2022-11-04T11:07:20.464Z,0.62
2022-11-04T11:09:55.779Z,0.70
2022-11-04T11:12:49.931Z,0.85
2022-11-04T11:15:14.573Z,0.57
2022-11-04T11:17:44.768Z,0.70
2022-11-04T11:20:23.446Z,0.72
2022-11-04T11:23:01.932Z,0.65
2022-11-04T11:25:30.827Z,0.30
2022-11-04T11:28:04.386Z,0.20
2022-11-04T11:30:40.413Z,0.60
2022-11-04T11:33:17.742Z,0.42
2022-11-04T11:35:52.298Z,0.30
2022-11-04T11:38:27.464Z,0.30
2022-11-04T11:41:25.897Z,0.20
2022-11-04T11:43:45.299Z,0.40
2022-11-04T11:46:23.386Z,0.93
2022-11-04T11:48:58.549Z,0.20
2022-11-04T11:51:33.144Z,0.10
2022-11-04T11:54:19.487Z,0.20
2022-11-04T12:02:23.204Z,0.10
2022-11-04T12:10:24.031Z,0.72
2022-11-04T12:13:00.001Z,0.10
2022-11-04T12:15:44.655Z,0.30
2022-11-04T12:18:34.782Z,0.20
2022-11-04T12:21:09.881Z,0.20
2022-11-04T12:23:47.295Z,0.10
2022-11-04T12:26:27.049Z,0.20
2022-11-04T12:29:07.499Z,0.60
2022-11-04T12:31:44.317Z,0.17
2022-11-04T12:34:21.408Z,0.20
2022-11-04T12:37:01.849Z,0.30
2022-11-04T12:39:42.606Z,0.30
2022-11-04T12:42:23.072Z,0.20
2022-11-04T12:44:56.065Z,0.10
2022-11-04T12:47:34.139Z,0.28
2022-11-04T12:50:33.633Z,0.30
2022-11-04T12:53:16.527Z,0.10
2022-11-04T12:55:53.451Z,0.20
2022-11-04T12:58:36.026Z,0.20
2022-11-04T13:01:15.107Z,0.00
2022-11-04T13:03:48.052Z,0.95
2022-11-04T13:06:22.634Z,0.20
2022-11-04T13:08:57.317Z,0.10
2022-11-04T13:11:32.357Z,0.17
2022-11-04T13:14:08.453Z,0.20
2022-11-04T13:16:43.041Z,0.20
2022-11-04T13:19:24.498Z,0.20
2022-11-04T13:21:58.326Z,0.30
2022-11-04T13:24:32.739Z,0.20
2022-11-04T13:27:07.203Z,0.40
2022-11-04T13:29:39.878Z,0.20
2022-11-04T13:32:14.447Z,0.23
2022-11-04T13:34:49.674Z,0.13
2022-11-04T13:37:25.018Z,0.20
2022-11-04T13:39:59.379Z,0.25
2022-11-04T13:42:52.940Z,0.23
2022-11-04T13:45:24.766Z,0.70
2022-11-04T13:48:00.460Z,0.57
2022-11-04T13:50:37.332Z,0.20
2022-11-04T13:53:11.598Z,0.30
2022-11-04T13:55:51.948Z,0.40
2022-11-04T13:58:26.848Z,0.55
2022-11-04T14:01:16.842Z,0.47
2022-11-04T14:03:57.001Z,0.82
2022-11-04T14:06:49.582Z,1.12
2022-11-04T14:09:58.108Z,0.60
2022-11-04T14:12:35.861Z,0.70
2022-11-04T14:15:16.478Z,0.55
2022-11-04T14:18:01.485Z,0.40
2022-11-04T14:20:37.290Z,0.50
2022-11-04T14:23:22.463Z,0.37
2022-11-04T14:26:02.745Z,0.37
2022-11-04T14:28:36.179Z,0.65
2022-11-04T14:31:16.867Z,1.32
2022-11-04T14:33:53.783Z,0.62
2022-11-04T14:36:34.764Z,0.47
2022-11-04T14:39:23.160Z,1.12
2022-11-04T14:41:58.241Z,0.95
2022-11-04T14:44:36.660Z,0.35
2022-11-04T14:47:21.138Z,0.30
2022-11-04T14:49:55.247Z,0.17
2022-11-04T14:52:30.853Z,0.40
2022-11-04T14:55:08.168Z,0.45
2022-11-04T14:57:43.694Z,0.40
2022-11-04T15:00:30.758Z,0.42
2022-11-04T15:03:27.878Z,0.35
2022-11-04T15:05:51.489Z,0.40
2022-11-04T15:08:31.380Z,0.60
2022-11-04T15:11:16.519Z,0.35
2022-11-04T15:16:22.268Z,1.25
2022-11-04T15:18:55.816Z,0.40
2022-11-04T15:21:27.791Z,2.05
2022-11-04T15:23:59.499Z,1.45
2022-11-04T15:26:33.356Z,1.32
2022-11-04T15:29:10.744Z,0.53
2022-11-04T15:31:48.305Z,0.90
2022-11-04T15:34:21.324Z,1.30
2022-11-04T15:36:54.956Z,0.70
2022-11-04T15:39:30.622Z,0.90
2022-11-04T15:42:22.476Z,0.70
2022-11-04T15:44:55.826Z,0.95
2022-11-04T15:47:29.838Z,0.90
2022-11-04T15:50:07.454Z,1.92
2022-11-04T15:52:41.660Z,1.20
2022-11-04T15:55:24.032Z,1.82
2022-11-04T15:57:56.553Z,1.72
2022-11-04T16:00:28.552Z,1.07
2022-11-04T16:03:01.586Z,2.70
2022-11-04T16:05:36.638Z,2.27
2022-11-04T16:08:32.800Z,4.37
2022-11-04T16:11:16.885Z,3.22
2022-11-04T16:13:48.625Z,1.60
2022-11-04T16:16:24.385Z,0.80
2022-11-04T16:18:59.945Z,0.60
2022-11-04T16:21:33.858Z,1.05
2022-11-04T16:24:09.106Z,0.60
2022-11-04T16:26:44.527Z,0.65
2022-11-04T16:29:21.284Z,0.90
2022-11-04T16:32:20.143Z,1.40
2022-11-04T16:34:53.892Z,0.70
2022-11-04T16:37:26.774Z,1.15
2022-11-04T16:39:59.971Z,0.70
2022-11-04T16:42:31.494Z,1.52
2022-11-04T16:45:05.479Z,0.82
2022-11-04T16:47:41.104Z,1.37
2022-11-04T16:50:18.430Z,0.93
2022-11-04T16:52:51.224Z,0.50
2022-11-04T16:55:24.324Z,0.90
2022-11-04T16:58:00.489Z,1.17
2022-11-04T17:00:33.299Z,0.88
2022-11-04T17:03:19.460Z,0.90
2022-11-04T17:05:57.878Z,0.70
2022-11-04T17:08:31.081Z,1.12
2022-11-04T17:11:05.442Z,0.78
2022-11-04T17:13:36.912Z,0.55
2022-11-04T17:16:13.545Z,0.70
2022-11-04T17:19:05.520Z,1.00
2022-11-04T17:21:45.848Z,1.00
2022-11-04T17:24:17.317Z,1.05
2022-11-04T17:26:48.478Z,0.90
2022-11-04T17:29:19.713Z,0.85
2022-11-04T17:31:52.840Z,1.10
2022-11-04T17:34:25.788Z,5.53
2022-11-04T17:36:57.831Z,3.27
2022-11-04T17:39:29.440Z,1.92
2022-11-04T17:42:18.531Z,2.17
2022-11-04T17:44:49.505Z,4.72
2022-11-04T17:47:21.368Z,2.27
2022-11-04T17:49:52.609Z,1.15
2022-11-04T17:52:23.827Z,1.30
2022-11-04T17:54:55.542Z,1.12
2022-11-04T17:57:26.483Z,2.10
2022-11-04T17:59:59.516Z,1.62
2022-11-04T18:02:31.465Z,1.30
2022-11-04T18:05:04.918Z,2.15
2022-11-04T18:07:37.440Z,1.10
2022-11-04T18:10:12.826Z,1.67
2022-11-04T18:12:44.461Z,1.55
2022-11-04T18:15:18.871Z,2.92
2022-11-04T18:18:06.384Z,3.75
2022-11-04T18:21:00.456Z,8.43
2022-11-04T18:23:48.149Z,8.23
2022-11-04T18:32:59.697Z,24.95
2022-11-04T18:35:31.737Z,11.75
2022-11-04T18:38:06.625Z,12.80
2022-11-04T18:47:07.385Z,8.95
2022-11-04T18:49:39.032Z,12.63
2022-11-04T18:52:11.578Z,4.05
2022-11-04T18:54:44.549Z,8.25
2022-11-04T18:57:17.521Z,8.55
2022-11-04T18:59:48.921Z,7.62
2022-11-04T19:02:35.483Z,12.33
2022-11-04T19:05:07.480Z,8.50
2022-11-04T19:07:41.980Z,9.98
2022-11-04T19:10:14.376Z,4.20
2022-11-04T19:13:03.356Z,1.80
2022-11-04T19:15:36.353Z,1.57
2022-11-04T19:18:07.909Z,2.75
2022-11-04T19:20:39.606Z,4.10
2022-11-04T19:23:11.273Z,1.15
2022-11-04T19:25:43.429Z,1.82
2022-11-04T19:30:51.304Z,1.00
2022-11-04T19:33:22.602Z,1.15
2022-11-04T19:35:54.298Z,1.98
2022-11-04T19:38:25.886Z,2.58
2022-11-04T19:40:57.387Z,2.05
2022-11-04T19:43:28.961Z,3.50
2022-11-04T19:46:04.668Z,5.12
2022-11-04T19:48:37.763Z,2.80
2022-11-04T19:51:12.482Z,1.90
2022-11-04T19:53:43.978Z,1.75
2022-11-04T19:56:17.631Z,0.80
2022-11-04T19:58:49.183Z,0.70
2022-11-04T20:01:21.573Z,1.85
2022-11-04T20:03:53.054Z,5.20
2022-11-04T20:08:54.767Z,2.75
2022-11-04T20:11:26.069Z,0.80
2022-11-04T20:13:57.622Z,1.77
2022-11-04T20:16:31.591Z,1.02
2022-11-04T20:19:04.751Z,3.65
2022-11-04T20:21:37.829Z,3.42
2022-11-04T20:24:12.682Z,1.20
2022-11-04T20:26:46.769Z,2.55
2022-11-04T20:29:18.250Z,3.58
2022-11-04T20:31:49.620Z,1.40
2022-11-04T20:34:21.277Z,1.30
2022-11-04T20:36:52.673Z,1.10
2022-11-04T20:39:24.398Z,1.20
2022-11-04T20:41:57.787Z,1.40
2022-11-04T20:44:30.382Z,3.20
2022-11-04T20:47:05.840Z,3.17
2022-11-04T20:49:38.435Z,3.52
2022-11-04T20:52:10.911Z,2.17
2022-11-04T20:54:42.230Z,1.20
2022-11-04T20:57:15.530Z,19.65
2022-11-04T20:59:46.690Z,2.75
2022-11-04T21:02:19.172Z,1.05
2022-11-04T21:04:51.125Z,0.93
2022-11-04T21:07:22.326Z,1.40
2022-11-04T21:09:53.648Z,1.10
2022-11-04T21:12:25.429Z,1.72
2022-11-04T21:14:57.596Z,4.62
2022-11-04T21:17:28.905Z,2.58
2022-11-04T21:20:00.420Z,1.82
2022-11-04T21:22:33.455Z,2.02
2022-11-04T21:25:05.079Z,1.00
2022-11-04T21:27:36.459Z,1.17
2022-11-04T21:30:11.370Z,1.50
2022-11-04T21:32:42.696Z,1.57
2022-11-04T21:35:14.115Z,1.52
2022-11-04T21:37:45.462Z,0.80
2022-11-04T21:40:19.453Z,1.10
2022-11-04T21:43:11.621Z,1.10
2022-11-04T21:46:05.351Z,1.32
2022-11-04T21:48:39.942Z,1.42
2022-11-04T21:51:14.001Z,1.35
2022-11-04T21:53:45.812Z,1.72
2022-11-04T21:56:19.311Z,1.80
2022-11-04T21:58:51.855Z,1.87
2022-11-04T22:01:26.755Z,1.47
2022-11-04T22:04:01.606Z,1.45
2022-11-04T22:06:35.511Z,1.40
2022-11-04T22:09:08.033Z,1.12
2022-11-04T22:11:39.967Z,1.62
2022-11-04T22:14:14.936Z,1.77
2022-11-04T22:16:46.375Z,1.65
2022-11-04T22:19:17.829Z,1.32
2022-11-04T22:21:49.244Z,1.87
2022-11-04T22:24:21.441Z,1.22
2022-11-04T22:26:52.703Z,1.77
2022-11-04T22:29:23.879Z,1.77
2022-11-04T22:31:55.204Z,1.85
2022-11-04T22:34:27.069Z,2.42
2022-11-04T22:36:58.383Z,2.17
2022-11-04T22:39:29.675Z,2.05
2022-11-04T22:42:01.022Z,2.20
2022-11-04T22:44:32.268Z,2.25
2022-11-04T22:47:04.584Z,1.85
2022-11-04T22:49:36.451Z,1.98
2022-11-04T22:52:08.037Z,2.00
2022-11-04T22:54:39.446Z,2.70
2022-11-04T22:57:10.771Z,2.40
2022-11-04T22:59:41.884Z,2.77
2022-11-04T23:04:45.217Z,2.42
2022-11-04T23:07:16.472Z,2.45
2022-11-04T23:10:05.330Z,2.58
2022-11-04T23:12:54.265Z,2.00
2022-11-04T23:15:43.525Z,2.42
2022-11-04T23:18:33.328Z,2.52
2022-11-04T23:21:22.674Z,2.92
2022-11-04T23:24:11.704Z,2.80
2022-11-04T23:26:44.847Z,2.70
2022-11-04T23:29:35.035Z,2.47
2022-11-04T23:32:06.453Z,2.45
2022-11-04T23:34:55.768Z,2.95
2022-11-04T23:37:27.142Z,3.27
2022-11-04T23:39:58.426Z,2.75
2022-11-04T23:42:30.117Z,3.60
2022-11-04T23:45:18.935Z,3.08
2022-11-04T23:48:09.018Z,3.47
2022-11-04T23:50:57.949Z,3.08
2022-11-04T23:53:46.628Z,4.00
2022-11-04T23:56:35.606Z,3.10
2022-11-04T23:59:27.223Z,3.77
